createdAt,value
2019-02-18T00:00:54.511Z,77.12
2019-02-18T00:06:00.454Z,76.98
2019-02-18T00:11:04.889Z,76.60
2019-02-18T00:16:09.304Z,77.81
2019-02-18T00:21:13.783Z,77.65
2019-02-18T00:26:18.158Z,77.29
2019-02-18T00:31:22.538Z,77.47
2019-02-18T00:36:26.923Z,76.89
2019-02-18T00:41:31.306Z,78.73
2019-02-18T00:46:35.691Z,78.98
2019-02-18T00:51:40.066Z,79.67
2019-02-18T00:56:44.460Z,78.27
2019-02-18T01:01:48.941Z,79.87
2019-02-18T01:06:53.266Z,80.45
2019-02-18T01:11:57.625Z,80.78
2019-02-18T01:17:01.975Z,79.23
2019-02-18T01:22:06.352Z,79.96
2019-02-18T01:27:10.713Z,81.12
2019-02-18T01:32:15.085Z,77.98
2019-02-18T01:37:19.497Z,79.11
2019-02-18T01:42:23.866Z,77.58
2019-02-18T01:47:28.224Z,78.17
2019-02-18T01:52:32.680Z,78.29
2019-02-18T01:57:37.026Z,78.41
2019-02-18T02:02:41.520Z,76.74
2019-02-18T02:07:55.523Z,77.91
2019-02-18T02:12:53.753Z,78.89
2019-02-18T02:17:58.142Z,79.19
2019-02-18T02:23:02.493Z,78.44
2019-02-18T02:28:06.843Z,79.39
2019-02-18T02:33:11.300Z,78.60
2019-02-18T02:38:15.652Z,79.57
2019-02-18T02:43:20.075Z,80.34
2019-02-18T02:48:24.448Z,79.68
2019-02-18T02:53:28.823Z,80.60
2019-02-18T02:58:33.213Z,79.61
2019-02-18T03:03:37.627Z,79.38
2019-02-18T03:08:41.987Z,81.15
2019-02-18T03:13:46.399Z,81.17
2019-02-18T03:18:50.754Z,79.39
2019-02-18T03:23:55.096Z,79.70
2019-02-18T03:29:32.848Z,79.40
2019-02-18T03:34:37.867Z,79.51
2019-02-18T03:39:42.257Z,79.27
2019-02-18T03:44:46.684Z,79.41
2019-02-18T03:49:51.059Z,79.11
2019-02-18T03:54:55.422Z,79.00
2019-02-18T03:59:59.804Z,80.09
2019-02-18T04:05:05.817Z,78.49
2019-02-18T04:10:13.614Z,78.46
2019-02-18T04:15:18.432Z,80.23
2019-02-18T04:20:22.823Z,80.36
2019-02-18T04:25:27.189Z,79.69
2019-02-18T04:30:31.550Z,80.31
2019-02-18T04:35:36.230Z,78.28
2019-02-18T04:40:40.629Z,81.46
2019-02-18T04:45:44.992Z,80.39
2019-02-18T04:50:49.459Z,80.11
2019-02-18T04:55:53.836Z,80.65
2019-02-18T05:00:58.205Z,81.50
2019-02-18T05:06:02.574Z,81.00
2019-02-18T05:11:06.930Z,81.10
2019-02-18T05:16:11.313Z,81.99
2019-02-18T05:21:15.730Z,82.27
2019-02-18T05:26:20.111Z,79.43
2019-02-18T05:31:24.497Z,80.98
2019-02-18T05:36:28.875Z,81.13
2019-02-18T05:41:33.257Z,81.20
2019-02-18T05:46:37.637Z,81.64
2019-02-18T05:51:42.352Z,81.79
2019-02-18T05:56:46.833Z,83.01
2019-02-18T06:01:51.323Z,83.31
2019-02-18T06:06:55.829Z,82.97
2019-02-18T06:12:00.287Z,82.72
2019-02-18T06:17:04.691Z,81.22
2019-02-18T06:22:09.036Z,81.51
2019-02-18T06:27:13.454Z,82.37
2019-02-18T06:32:17.835Z,80.51
2019-02-18T06:37:22.182Z,81.67
2019-02-18T06:42:26.604Z,82.14
2019-02-18T06:47:30.983Z,80.24
2019-02-18T06:52:35.332Z,79.79
2019-02-18T06:57:41.347Z,80.01
2019-02-18T07:02:47.331Z,80.42
2019-02-18T07:07:53.371Z,80.02
2019-02-18T07:12:57.752Z,78.89
2019-02-18T07:18:02.156Z,78.43
2019-02-18T07:23:06.626Z,77.57
2019-02-18T07:28:11.750Z,75.28
2019-02-18T07:33:16.106Z,75.28
2019-02-18T07:38:20.495Z,74.47
2019-02-18T07:43:24.845Z,74.18
2019-02-18T07:48:29.971Z,73.57
2019-02-18T07:53:34.354Z,72.79
2019-02-18T07:58:38.765Z,72.22
2019-02-18T08:03:43.143Z,71.55
2019-02-18T08:08:47.495Z,71.49
2019-02-18T08:13:51.873Z,71.66
2019-02-18T08:18:56.980Z,71.62
2019-02-18T08:24:01.330Z,71.46
2019-02-18T08:29:05.687Z,71.78
2019-02-18T08:34:10.072Z,71.19
2019-02-18T08:39:14.444Z,71.40
2019-02-18T08:44:18.791Z,70.59
2019-02-18T08:49:26.031Z,70.69
2019-02-18T08:54:30.387Z,70.39
2019-02-18T08:59:34.742Z,70.26
2019-02-18T09:04:39.126Z,69.58
2019-02-18T09:09:43.504Z,69.54
2019-02-18T09:14:47.919Z,68.90
2019-02-18T09:19:53.235Z,68.17
2019-02-18T09:24:59.258Z,67.88
2019-02-18T09:30:05.372Z,66.89
2019-02-18T09:35:10.385Z,66.80
2019-02-18T09:40:14.757Z,65.35
2019-02-18T09:45:19.181Z,65.33
2019-02-18T09:50:23.586Z,65.41
2019-02-18T09:55:27.967Z,64.84
2019-02-18T10:00:35.028Z,64.13
2019-02-18T10:05:39.450Z,63.88
2019-02-18T10:10:43.815Z,62.83
2019-02-18T10:15:48.269Z,62.58
2019-02-18T10:20:52.632Z,61.41
2019-02-18T10:25:57.067Z,61.60
2019-02-18T10:31:01.512Z,60.34
2019-02-18T10:36:05.921Z,60.35
2019-02-18T10:41:10.376Z,59.96
2019-02-18T10:46:14.866Z,58.61
2019-02-18T10:51:19.251Z,58.44
2019-02-18T10:56:23.641Z,57.92
2019-02-18T11:01:27.992Z,57.79
2019-02-18T11:06:32.479Z,57.87
2019-02-18T11:11:36.842Z,57.87
2019-02-18T11:16:41.251Z,57.13
2019-02-18T11:21:45.652Z,56.42
2019-02-18T11:26:50.033Z,56.80
2019-02-18T11:31:54.448Z,56.43
2019-02-18T11:36:58.836Z,56.18
2019-02-18T11:42:03.609Z,55.93
2019-02-18T11:47:09.035Z,55.51
2019-02-18T11:52:13.409Z,55.57
2019-02-18T11:57:17.798Z,55.54
2019-02-18T12:02:22.215Z,55.53
2019-02-18T12:07:26.592Z,54.48
2019-02-18T12:12:30.973Z,54.33
2019-02-18T12:17:35.727Z,53.90
2019-02-18T12:22:40.156Z,53.69
2019-02-18T12:27:44.550Z,53.60
2019-02-18T12:32:48.916Z,54.24
2019-02-18T12:37:55.586Z,54.20
2019-02-18T12:42:59.391Z,53.63
2019-02-18T12:48:03.769Z,53.01
2019-02-18T12:53:08.139Z,52.55
2019-02-18T12:58:12.595Z,52.63
2019-02-18T13:03:16.996Z,51.12
2019-02-18T13:08:21.594Z,51.96
2019-02-18T13:13:25.983Z,51.34
2019-02-18T13:18:30.339Z,51.73
2019-02-18T13:23:34.684Z,51.97
2019-02-18T13:28:39.223Z,51.39
2019-02-18T13:33:43.873Z,51.72
2019-02-18T13:38:48.356Z,51.72
2019-02-18T13:43:52.716Z,50.86
2019-02-18T13:48:57.104Z,50.70
2019-02-18T13:54:01.503Z,49.72
2019-02-18T13:59:06.334Z,48.96
2019-02-18T14:04:10.778Z,49.42
2019-02-18T14:09:15.167Z,49.03
2019-02-18T14:14:19.570Z,49.29
2019-02-18T14:19:23.936Z,48.27
2019-02-18T14:24:28.317Z,48.72
2019-02-18T14:29:32.703Z,48.42
2019-02-18T14:34:37.075Z,48.65
2019-02-18T14:39:42.509Z,47.84
2019-02-18T14:44:46.881Z,48.78
2019-02-18T14:49:51.273Z,47.26
2019-02-18T14:54:55.984Z,47.35
2019-02-18T15:00:00.727Z,47.73
2019-02-18T15:05:06.989Z,47.83
2019-02-18T15:10:11.632Z,47.28
2019-02-18T15:15:16.269Z,46.63
2019-02-18T15:20:20.605Z,46.15
2019-02-18T15:25:25.057Z,46.69
2019-02-18T15:30:29.452Z,46.25
2019-02-18T15:35:34.201Z,46.40
2019-02-18T15:40:39.703Z,47.02
2019-02-18T15:45:44.088Z,46.94
2019-02-18T15:50:48.481Z,47.38
2019-02-18T15:55:54.177Z,47.87
2019-02-18T16:00:59.336Z,46.50
2019-02-18T16:06:03.931Z,46.50
2019-02-18T16:11:08.805Z,46.28
2019-02-18T16:16:13.166Z,46.24
2019-02-18T16:21:17.603Z,46.06
2019-02-18T16:26:21.984Z,47.47
2019-02-18T16:31:26.433Z,47.02
2019-02-18T16:36:30.829Z,47.60
2019-02-18T16:41:36.252Z,48.76
2019-02-18T16:46:41.950Z,48.81
2019-02-18T16:51:48.643Z,48.42
2019-02-18T16:56:53.113Z,49.14
2019-02-18T17:01:58.576Z,49.04
2019-02-18T17:07:02.988Z,48.96
2019-02-18T17:12:08.873Z,49.94
2019-02-18T17:17:18.206Z,49.49
2019-02-18T17:22:22.499Z,50.29
2019-02-18T17:27:26.919Z,50.74
2019-02-18T17:32:31.359Z,51.54
2019-02-18T17:37:35.735Z,51.58
2019-02-18T17:42:40.226Z,52.08
2019-02-18T17:47:47.680Z,52.68
2019-02-18T17:52:51.735Z,53.08
2019-02-18T17:58:00.289Z,53.70
2019-02-18T18:03:07.390Z,53.60
2019-02-18T18:08:11.775Z,53.58
2019-02-18T18:13:24.779Z,54.24
2019-02-18T18:18:22.336Z,54.84
2019-02-18T18:23:26.691Z,54.44
2019-02-18T18:28:31.087Z,55.15
2019-02-18T18:33:35.745Z,55.56
2019-02-18T18:38:40.105Z,55.20
2019-02-18T18:43:44.511Z,55.29
2019-02-18T18:48:48.825Z,56.12
2019-02-18T18:53:53.173Z,56.51
2019-02-18T18:58:57.534Z,56.73
2019-02-18T19:04:01.917Z,56.96
2019-02-18T19:09:06.421Z,57.94
2019-02-18T19:14:11.571Z,57.67
2019-02-18T19:19:15.951Z,58.25
2019-02-18T19:24:20.336Z,58.89
2019-02-18T19:29:24.711Z,58.11
2019-02-18T19:34:30.192Z,60.47
2019-02-18T19:39:34.717Z,59.63
2019-02-18T19:44:39.165Z,61.78
2019-02-18T19:49:44.818Z,66.02
2019-02-18T19:54:49.627Z,68.41
2019-02-18T19:59:53.960Z,68.14
2019-02-18T20:04:58.405Z,66.37
2019-02-18T20:10:02.831Z,65.52
2019-02-18T20:15:10.329Z,66.66
2019-02-18T20:20:16.469Z,68.75
2019-02-18T20:25:20.941Z,67.53
2019-02-18T20:30:27.158Z,68.04
2019-02-18T20:35:31.659Z,69.48
2019-02-18T20:40:36.214Z,68.85
2019-02-18T20:45:45.691Z,68.86
2019-02-18T20:50:53.238Z,70.78
2019-02-18T20:55:57.834Z,68.80
2019-02-18T21:01:02.587Z,71.95
2019-02-18T21:06:06.960Z,71.74
2019-02-18T21:11:11.425Z,71.70
2019-02-18T21:16:16.124Z,72.25
2019-02-18T21:21:20.519Z,73.51
2019-02-18T21:26:24.912Z,73.28
2019-02-18T21:31:29.595Z,74.69
2019-02-18T21:36:34.056Z,69.81
2019-02-18T21:41:38.427Z,68.06
2019-02-18T21:46:42.983Z,71.29
2019-02-18T21:51:48.612Z,69.67
2019-02-18T21:56:53.288Z,71.84
2019-02-18T22:01:57.829Z,72.19
2019-02-18T22:07:02.504Z,71.64
2019-02-18T22:12:06.919Z,71.12
2019-02-18T22:17:11.836Z,72.53
2019-02-18T22:22:16.237Z,71.45
2019-02-18T22:27:20.647Z,71.12
2019-02-18T22:32:26.101Z,70.91
2019-02-18T22:37:30.513Z,72.94
2019-02-18T22:42:36.099Z,72.63
2019-02-18T22:47:44.604Z,72.00
2019-02-18T22:52:51.593Z,72.69
2019-02-18T22:57:58.239Z,71.77
2019-02-18T23:03:02.712Z,71.69
2019-02-18T23:08:07.062Z,72.22
2019-02-18T23:13:11.533Z,71.00
2019-02-18T23:18:16.085Z,73.44
2019-02-18T23:23:20.481Z,72.82
2019-02-18T23:28:24.843Z,75.23
2019-02-18T23:33:29.214Z,73.86
2019-02-18T23:38:33.650Z,72.09
2019-02-18T23:43:38.033Z,73.32
2019-02-18T23:48:42.436Z,74.61
2019-02-18T23:53:46.827Z,75.14
2019-02-18T23:58:51.215Z,74.20
